sensor_id;sensor_type;location;lat;lon;timestamp;P1;durP1;ratioP1;P2;durP2;ratioP2
12476;SDS011;6303;51.504;6.300;2023-04-30T00:02:21;2.17;;;2.00;;
12476;SDS011;6303;51.504;6.300;2023-04-30T00:04:47;2.05;;;1.85;;
12476;SDS011;6303;51.504;6.300;2023-04-30T00:07:15;2.15;;;1.90;;
12476;SDS011;6303;51.504;6.300;2023-04-30T00:09:42;2.53;;;1.92;;
12476;SDS011;6303;51.504;6.300;2023-04-30T00:12:09;2.50;;;2.00;;
12476;SDS011;6303;51.504;6.300;2023-04-30T00:14:36;2.25;;;1.90;;
12476;SDS011;6303;51.504;6.300;2023-04-30T00:17:04;2.33;;;2.00;;
12476;SDS011;6303;51.504;6.300;2023-04-30T00:19:31;2.00;;;1.80;;
12476;SDS011;6303;51.504;6.300;2023-04-30T00:21:58;1.65;;;1.55;;
12476;SDS011;6303;51.504;6.300;2023-04-30T00:24:26;2.40;;;2.20;;
12476;SDS011;6303;51.504;6.300;2023-04-30T00:26:53;1.92;;;1.83;;
12476;SDS011;6303;51.504;6.300;2023-04-30T00:29:20;2.08;;;1.88;;
12476;SDS011;6303;51.504;6.300;2023-04-30T00:31:47;1.88;;;1.77;;
12476;SDS011;6303;51.504;6.300;2023-04-30T00:34:16;2.30;;;2.10;;
12476;SDS011;6303;51.504;6.300;2023-04-30T00:36:43;1.85;;;1.70;;
12476;SDS011;6303;51.504;6.300;2023-04-30T00:39:10;2.05;;;1.95;;
12476;SDS011;6303;51.504;6.300;2023-04-30T00:41:37;2.28;;;1.90;;
12476;SDS011;6303;51.504;6.300;2023-04-30T00:44:05;2.47;;;1.90;;
12476;SDS011;6303;51.504;6.300;2023-04-30T00:46:32;2.85;;;1.90;;
12476;SDS011;6303;51.504;6.300;2023-04-30T00:48:59;1.92;;;1.83;;
12476;SDS011;6303;51.504;6.300;2023-04-30T00:51:30;2.00;;;1.73;;
12476;SDS011;6303;51.504;6.300;2023-04-30T00:53:59;3.45;;;1.80;;
12476;SDS011;6303;51.504;6.300;2023-04-30T00:56:27;2.15;;;1.90;;
12476;SDS011;6303;51.504;6.300;2023-04-30T00:58:55;2.47;;;1.80;;
12476;SDS011;6303;51.504;6.300;2023-04-30T01:01:22;2.00;;;1.90;;
12476;SDS011;6303;51.504;6.300;2023-04-30T01:03:50;1.98;;;1.88;;
12476;SDS011;6303;51.504;6.300;2023-04-30T01:06:17;2.00;;;1.75;;
12476;SDS011;6303;51.504;6.300;2023-04-30T01:08:46;1.92;;;1.80;;
12476;SDS011;6303;51.504;6.300;2023-04-30T01:11:16;1.92;;;1.83;;
12476;SDS011;6303;51.504;6.300;2023-04-30T01:13:49;1.60;;;1.50;;
12476;SDS011;6303;51.504;6.300;2023-04-30T01:16:24;1.98;;;1.77;;
12476;SDS011;6303;51.504;6.300;2023-04-30T01:18:53;2.15;;;1.95;;
12476;SDS011;6303;51.504;6.300;2023-04-30T01:21:24;2.05;;;1.90;;
12476;SDS011;6303;51.504;6.300;2023-04-30T01:27:06;2.13;;;2.00;;
12476;SDS011;6303;51.504;6.300;2023-04-30T01:29:42;1.88;;;1.77;;
12476;SDS011;6303;51.504;6.300;2023-04-30T01:32:09;1.98;;;1.80;;
12476;SDS011;6303;51.504;6.300;2023-04-30T01:34:36;1.55;;;1.45;;
12476;SDS011;6303;51.504;6.300;2023-04-30T01:37:10;2.15;;;1.80;;
12476;SDS011;6303;51.504;6.300;2023-04-30T01:39:49;1.98;;;1.80;;
12476;SDS011;6303;51.504;6.300;2023-04-30T01:42:28;2.30;;;2.10;;
12476;SDS011;6303;51.504;6.300;2023-04-30T01:45:07;2.00;;;1.90;;
12476;SDS011;6303;51.504;6.300;2023-04-30T01:47:45;2.05;;;1.92;;
12476;SDS011;6303;51.504;6.300;2023-04-30T01:50:19;3.75;;;1.67;;
12476;SDS011;6303;51.504;6.300;2023-04-30T01:52:57;2.30;;;2.10;;
12476;SDS011;6303;51.504;6.300;2023-04-30T01:55:26;2.05;;;1.95;;
12476;SDS011;6303;51.504;6.300;2023-04-30T01:57:56;1.80;;;1.70;;
12476;SDS011;6303;51.504;6.300;2023-04-30T02:00:27;1.80;;;1.70;;
12476;SDS011;6303;51.504;6.300;2023-04-30T02:02:56;1.90;;;1.80;;
12476;SDS011;6303;51.504;6.300;2023-04-30T02:05:23;1.83;;;1.73;;
12476;SDS011;6303;51.504;6.300;2023-04-30T02:07:51;1.92;;;1.83;;
12476;SDS011;6303;51.504;6.300;2023-04-30T02:10:19;1.77;;;1.67;;
12476;SDS011;6303;51.504;6.300;2023-04-30T02:12:47;1.88;;;1.77;;
12476;SDS011;6303;51.504;6.300;2023-04-30T02:15:14;1.75;;;1.65;;
12476;SDS011;6303;51.504;6.300;2023-04-30T02:17:43;1.90;;;1.80;;
12476;SDS011;6303;51.504;6.300;2023-04-30T02:20:10;2.20;;;2.00;;
12476;SDS011;6303;51.504;6.300;2023-04-30T02:22:37;2.00;;;1.90;;
12476;SDS011;6303;51.504;6.300;2023-04-30T02:25:05;1.85;;;1.75;;
12476;SDS011;6303;51.504;6.300;2023-04-30T02:27:32;1.58;;;1.48;;
12476;SDS011;6303;51.504;6.300;2023-04-30T02:30:00;1.73;;;1.63;;
12476;SDS011;6303;51.504;6.300;2023-04-30T02:32:27;2.00;;;1.90;;
12476;SDS011;6303;51.504;6.300;2023-04-30T02:34:56;1.90;;;1.80;;
12476;SDS011;6303;51.504;6.300;2023-04-30T02:37:24;1.80;;;1.70;;
12476;SDS011;6303;51.504;6.300;2023-04-30T02:39:51;1.80;;;1.70;;
12476;SDS011;6303;51.504;6.300;2023-04-30T02:42:19;1.80;;;1.70;;
12476;SDS011;6303;51.504;6.300;2023-04-30T02:44:46;1.98;;;1.80;;
12476;SDS011;6303;51.504;6.300;2023-04-30T02:47:13;1.83;;;1.73;;
12476;SDS011;6303;51.504;6.300;2023-04-30T02:49:40;1.77;;;1.67;;
12476;SDS011;6303;51.504;6.300;2023-04-30T02:52:08;1.88;;;1.77;;
12476;SDS011;6303;51.504;6.300;2023-04-30T02:54:36;2.45;;;1.70;;
12476;SDS011;6303;51.504;6.300;2023-04-30T02:57:03;1.80;;;1.70;;
12476;SDS011;6303;51.504;6.300;2023-04-30T02:59:31;1.70;;;1.60;;
12476;SDS011;6303;51.504;6.300;2023-04-30T03:01:58;2.20;;;2.00;;
12476;SDS011;6303;51.504;6.300;2023-04-30T03:04:25;1.80;;;1.70;;
12476;SDS011;6303;51.504;6.300;2023-04-30T03:06:52;1.75;;;1.65;;
12476;SDS011;6303;51.504;6.300;2023-04-30T03:09:20;3.15;;;1.83;;
12476;SDS011;6303;51.504;6.300;2023-04-30T03:11:47;1.80;;;1.70;;
12476;SDS011;6303;51.504;6.300;2023-04-30T03:14:14;1.90;;;1.80;;
12476;SDS011;6303;51.504;6.300;2023-04-30T03:16:41;1.65;;;1.55;;
12476;SDS011;6303;51.504;6.300;2023-04-30T03:19:08;1.88;;;1.73;;
12476;SDS011;6303;51.504;6.300;2023-04-30T03:21:36;1.80;;;1.70;;
12476;SDS011;6303;51.504;6.300;2023-04-30T03:24:03;2.08;;;1.92;;
12476;SDS011;6303;51.504;6.300;2023-04-30T03:26:32;1.90;;;1.80;;
12476;SDS011;6303;51.504;6.300;2023-04-30T03:28:59;1.83;;;1.73;;
12476;SDS011;6303;51.504;6.300;2023-04-30T03:31:26;1.83;;;1.73;;
12476;SDS011;6303;51.504;6.300;2023-04-30T03:33:53;1.88;;;1.77;;
12476;SDS011;6303;51.504;6.300;2023-04-30T03:36:20;1.88;;;1.77;;
12476;SDS011;6303;51.504;6.300;2023-04-30T03:38:47;1.70;;;1.60;;
12476;SDS011;6303;51.504;6.300;2023-04-30T03:41:14;1.73;;;1.63;;
12476;SDS011;6303;51.504;6.300;2023-04-30T03:43:43;2.22;;;1.90;;
12476;SDS011;6303;51.504;6.300;2023-04-30T03:46:09;1.80;;;1.70;;
12476;SDS011;6303;51.504;6.300;2023-04-30T03:48:36;1.70;;;1.60;;
12476;SDS011;6303;51.504;6.300;2023-04-30T03:51:04;1.80;;;1.70;;
12476;SDS011;6303;51.504;6.300;2023-04-30T03:53:31;2.15;;;1.80;;
12476;SDS011;6303;51.504;6.300;2023-04-30T03:55:58;1.73;;;1.60;;
12476;SDS011;6303;51.504;6.300;2023-04-30T03:58:25;1.70;;;1.60;;
12476;SDS011;6303;51.504;6.300;2023-04-30T04:00:54;1.80;;;1.70;;
12476;SDS011;6303;51.504;6.300;2023-04-30T04:03:21;1.98;;;1.88;;
12476;SDS011;6303;51.504;6.300;2023-04-30T04:05:48;1.92;;;1.77;;
12476;SDS011;6303;51.504;6.300;2023-04-30T04:08:16;1.80;;;1.70;;
12476;SDS011;6303;51.504;6.300;2023-04-30T04:10:43;1.65;;;1.55;;
12476;SDS011;6303;51.504;6.300;2023-04-30T04:13:10;1.92;;;1.80;;
12476;SDS011;6303;51.504;6.300;2023-04-30T04:15:37;1.70;;;1.60;;
12476;SDS011;6303;51.504;6.300;2023-04-30T04:18:06;1.50;;;1.40;;
12476;SDS011;6303;51.504;6.300;2023-04-30T04:20:33;1.92;;;1.73;;
12476;SDS011;6303;51.504;6.300;2023-04-30T04:23:00;1.90;;;1.80;;
12476;SDS011;6303;51.504;6.300;2023-04-30T04:25:27;1.65;;;1.55;;
12476;SDS011;6303;51.504;6.300;2023-04-30T04:27:54;1.70;;;1.55;;
12476;SDS011;6303;51.504;6.300;2023-04-30T04:30:21;1.90;;;1.80;;
12476;SDS011;6303;51.504;6.300;2023-04-30T04:32:49;2.17;;;1.73;;
12476;SDS011;6303;51.504;6.300;2023-04-30T04:35:20;1.67;;;1.58;;
12476;SDS011;6303;51.504;6.300;2023-04-30T04:37:47;1.90;;;1.80;;
12476;SDS011;6303;51.504;6.300;2023-04-30T04:40:14;1.98;;;1.88;;
12476;SDS011;6303;51.504;6.300;2023-04-30T04:42:42;1.88;;;1.77;;
12476;SDS011;6303;51.504;6.300;2023-04-30T04:45:11;1.70;;;1.60;;
12476;SDS011;6303;51.504;6.300;2023-04-30T04:47:40;1.63;;;1.52;;
12476;SDS011;6303;51.504;6.300;2023-04-30T04:50:07;1.70;;;1.60;;
12476;SDS011;6303;51.504;6.300;2023-04-30T04:52:36;1.80;;;1.70;;
12476;SDS011;6303;51.504;6.300;2023-04-30T04:55:04;1.77;;;1.67;;
12476;SDS011;6303;51.504;6.300;2023-04-30T04:57:32;1.90;;;1.80;;
12476;SDS011;6303;51.504;6.300;2023-04-30T04:59:59;1.92;;;1.83;;
12476;SDS011;6303;51.504;6.300;2023-04-30T05:02:26;1.70;;;1.60;;
12476;SDS011;6303;51.504;6.300;2023-04-30T05:04:54;1.65;;;1.55;;
12476;SDS011;6303;51.504;6.300;2023-04-30T05:07:21;1.65;;;1.55;;
12476;SDS011;6303;51.504;6.300;2023-04-30T05:09:50;1.80;;;1.70;;
12476;SDS011;6303;51.504;6.300;2023-04-30T05:12:17;1.75;;;1.65;;
12476;SDS011;6303;51.504;6.300;2023-04-30T05:14:44;1.80;;;1.70;;
12476;SDS011;6303;51.504;6.300;2023-04-30T05:17:11;2.38;;;1.88;;
12476;SDS011;6303;51.504;6.300;2023-04-30T05:19:39;2.00;;;1.90;;
12476;SDS011;6303;51.504;6.300;2023-04-30T05:22:11;1.80;;;1.70;;
12476;SDS011;6303;51.504;6.300;2023-04-30T05:24:39;1.63;;;1.52;;
12476;SDS011;6303;51.504;6.300;2023-04-30T05:27:07;1.80;;;1.70;;
12476;SDS011;6303;51.504;6.300;2023-04-30T05:29:34;2.28;;;2.10;;
12476;SDS011;6303;51.504;6.300;2023-04-30T05:32:01;2.67;;;1.70;;
12476;SDS011;6303;51.504;6.300;2023-04-30T05:34:28;1.80;;;1.70;;
12476;SDS011;6303;51.504;6.300;2023-04-30T05:36:55;1.85;;;1.73;;
12476;SDS011;6303;51.504;6.300;2023-04-30T05:39:22;1.67;;;1.58;;
12476;SDS011;6303;51.504;6.300;2023-04-30T05:41:49;1.80;;;1.70;;
12476;SDS011;6303;51.504;6.300;2023-04-30T05:44:17;1.75;;;1.60;;
12476;SDS011;6303;51.504;6.300;2023-04-30T05:46:44;2.20;;;2.10;;
12476;SDS011;6303;51.504;6.300;2023-04-30T05:49:12;1.88;;;1.70;;
12476;SDS011;6303;51.504;6.300;2023-04-30T05:51:39;3.60;;;1.60;;
12476;SDS011;6303;51.504;6.300;2023-04-30T05:54:06;1.80;;;1.70;;
12476;SDS011;6303;51.504;6.300;2023-04-30T05:56:33;2.20;;;2.03;;
12476;SDS011;6303;51.504;6.300;2023-04-30T05:59:00;2.15;;;1.63;;
12476;SDS011;6303;51.504;6.300;2023-04-30T06:01:28;2.08;;;1.88;;
12476;SDS011;6303;51.504;6.300;2023-04-30T06:03:55;2.80;;;1.95;;
12476;SDS011;6303;51.504;6.300;2023-04-30T06:06:23;2.65;;;1.75;;
12476;SDS011;6303;51.504;6.300;2023-04-30T06:08:50;3.88;;;2.53;;
12476;SDS011;6303;51.504;6.300;2023-04-30T06:11:17;10.57;;;3.55;;
12476;SDS011;6303;51.504;6.300;2023-04-30T06:13:46;9.52;;;3.17;;
12476;SDS011;6303;51.504;6.300;2023-04-30T06:16:13;11.50;;;3.50;;
12476;SDS011;6303;51.504;6.300;2023-04-30T06:18:41;11.20;;;4.18;;
12476;SDS011;6303;51.504;6.300;2023-04-30T06:21:08;11.13;;;4.05;;
12476;SDS011;6303;51.504;6.300;2023-04-30T06:23:36;9.52;;;3.78;;
12476;SDS011;6303;51.504;6.300;2023-04-30T06:26:03;9.68;;;3.45;;
12476;SDS011;6303;51.504;6.300;2023-04-30T06:28:30;9.15;;;3.30;;
12476;SDS011;6303;51.504;6.300;2023-04-30T06:30:57;6.05;;;3.05;;
12476;SDS011;6303;51.504;6.300;2023-04-30T06:33:24;7.20;;;3.50;;
12476;SDS011;6303;51.504;6.300;2023-04-30T06:35:52;6.72;;;3.45;;
12476;SDS011;6303;51.504;6.300;2023-04-30T06:38:19;10.88;;;3.20;;
12476;SDS011;6303;51.504;6.300;2023-04-30T06:40:46;8.85;;;3.17;;
12476;SDS011;6303;51.504;6.300;2023-04-30T06:43:13;7.97;;;3.50;;
12476;SDS011;6303;51.504;6.300;2023-04-30T06:45:41;6.80;;;2.90;;
12476;SDS011;6303;51.504;6.300;2023-04-30T06:48:08;7.05;;;3.00;;
12476;SDS011;6303;51.504;6.300;2023-04-30T06:50:35;4.32;;;2.83;;
12476;SDS011;6303;51.504;6.300;2023-04-30T06:53:10;6.47;;;2.70;;
12476;SDS011;6303;51.504;6.300;2023-04-30T06:55:37;6.85;;;3.40;;
12476;SDS011;6303;51.504;6.300;2023-04-30T06:58:04;6.80;;;3.00;;
12476;SDS011;6303;51.504;6.300;2023-04-30T07:00:32;7.68;;;2.83;;
12476;SDS011;6303;51.504;6.300;2023-04-30T07:02:59;4.65;;;3.08;;
12476;SDS011;6303;51.504;6.300;2023-04-30T07:05:27;7.20;;;3.10;;
12476;SDS011;6303;51.504;6.300;2023-04-30T07:07:54;6.85;;;2.65;;
12476;SDS011;6303;51.504;6.300;2023-04-30T07:10:23;4.47;;;2.53;;
12476;SDS011;6303;51.504;6.300;2023-04-30T07:12:50;5.40;;;2.83;;
12476;SDS011;6303;51.504;6.300;2023-04-30T07:15:17;6.40;;;2.67;;
12476;SDS011;6303;51.504;6.300;2023-04-30T07:17:44;4.85;;;2.78;;
12476;SDS011;6303;51.504;6.300;2023-04-30T07:20:12;6.20;;;2.97;;
12476;SDS011;6303;51.504;6.300;2023-04-30T07:22:39;4.53;;;2.58;;
12476;SDS011;6303;51.504;6.300;2023-04-30T07:25:08;5.13;;;2.55;;
12476;SDS011;6303;51.504;6.300;2023-04-30T07:27:37;4.70;;;2.92;;
12476;SDS011;6303;51.504;6.300;2023-04-30T07:30:05;5.07;;;2.50;;
12476;SDS011;6303;51.504;6.300;2023-04-30T07:32:34;4.07;;;2.83;;
12476;SDS011;6303;51.504;6.300;2023-04-30T07:35:01;5.88;;;2.63;;
12476;SDS011;6303;51.504;6.300;2023-04-30T07:37:29;4.32;;;2.63;;
12476;SDS011;6303;51.504;6.300;2023-04-30T07:39:57;4.50;;;2.63;;
12476;SDS011;6303;51.504;6.300;2023-04-30T07:42:24;5.13;;;2.60;;
12476;SDS011;6303;51.504;6.300;2023-04-30T07:44:52;3.95;;;2.53;;
12476;SDS011;6303;51.504;6.300;2023-04-30T07:47:19;3.75;;;2.58;;
12476;SDS011;6303;51.504;6.300;2023-04-30T07:49:46;5.18;;;2.92;;
12476;SDS011;6303;51.504;6.300;2023-04-30T07:52:14;3.08;;;2.28;;
12476;SDS011;6303;51.504;6.300;2023-04-30T07:54:41;4.25;;;2.28;;
12476;SDS011;6303;51.504;6.300;2023-04-30T07:57:08;3.35;;;2.25;;
12476;SDS011;6303;51.504;6.300;2023-04-30T07:59:35;3.38;;;2.30;;
12476;SDS011;6303;51.504;6.300;2023-04-30T08:02:04;3.22;;;2.38;;
12476;SDS011;6303;51.504;6.300;2023-04-30T08:04:31;4.18;;;2.38;;
12476;SDS011;6303;51.504;6.300;2023-04-30T08:06:58;4.90;;;2.38;;
12476;SDS011;6303;51.504;6.300;2023-04-30T08:09:26;4.70;;;2.58;;
12476;SDS011;6303;51.504;6.300;2023-04-30T08:11:53;2.97;;;2.25;;
12476;SDS011;6303;51.504;6.300;2023-04-30T08:14:20;5.35;;;2.50;;
12476;SDS011;6303;51.504;6.300;2023-04-30T08:16:47;3.00;;;2.15;;
12476;SDS011;6303;51.504;6.300;2023-04-30T08:19:15;2.72;;;2.28;;
12476;SDS011;6303;51.504;6.300;2023-04-30T08:21:42;3.28;;;2.20;;
12476;SDS011;6303;51.504;6.300;2023-04-30T08:24:09;2.85;;;2.33;;
12476;SDS011;6303;51.504;6.300;2023-04-30T08:26:36;3.53;;;2.22;;
12476;SDS011;6303;51.504;6.300;2023-04-30T08:29:03;3.50;;;2.20;;
12476;SDS011;6303;51.504;6.300;2023-04-30T08:31:32;4.47;;;2.35;;
12476;SDS011;6303;51.504;6.300;2023-04-30T08:33:59;3.35;;;2.03;;
12476;SDS011;6303;51.504;6.300;2023-04-30T08:36:27;3.10;;;2.45;;
12476;SDS011;6303;51.504;6.300;2023-04-30T08:38:54;2.60;;;2.20;;
12476;SDS011;6303;51.504;6.300;2023-04-30T08:41:24;2.38;;;2.13;;
12476;SDS011;6303;51.504;6.300;2023-04-30T08:43:52;2.28;;;2.08;;
12476;SDS011;6303;51.504;6.300;2023-04-30T08:46:19;3.53;;;2.40;;
12476;SDS011;6303;51.504;6.300;2023-04-30T08:48:48;3.67;;;2.20;;
12476;SDS011;6303;51.504;6.300;2023-04-30T08:51:15;3.47;;;2.30;;
12476;SDS011;6303;51.504;6.300;2023-04-30T08:53:43;2.80;;;2.08;;
12476;SDS011;6303;51.504;6.300;2023-04-30T08:56:12;2.20;;;2.00;;
12476;SDS011;6303;51.504;6.300;2023-04-30T08:58:39;3.22;;;2.40;;
12476;SDS011;6303;51.504;6.300;2023-04-30T09:01:07;3.42;;;2.33;;
12476;SDS011;6303;51.504;6.300;2023-04-30T09:03:35;2.05;;;1.95;;
12476;SDS011;6303;51.504;6.300;2023-04-30T09:06:03;1.95;;;1.80;;
12476;SDS011;6303;51.504;6.300;2023-04-30T09:08:40;2.78;;;2.00;;
12476;SDS011;6303;51.504;6.300;2023-04-30T09:11:22;2.72;;;2.35;;
12476;SDS011;6303;51.504;6.300;2023-04-30T09:13:50;3.10;;;2.17;;
12476;SDS011;6303;51.504;6.300;2023-04-30T09:16:18;2.55;;;2.13;;
12476;SDS011;6303;51.504;6.300;2023-04-30T09:18:46;2.42;;;2.13;;
12476;SDS011;6303;51.504;6.300;2023-04-30T09:21:13;2.25;;;1.98;;
12476;SDS011;6303;51.504;6.300;2023-04-30T09:23:53;2.25;;;2.05;;
12476;SDS011;6303;51.504;6.300;2023-04-30T09:26:26;2.28;;;2.08;;
12476;SDS011;6303;51.504;6.300;2023-04-30T09:28:57;2.45;;;1.90;;
12476;SDS011;6303;51.504;6.300;2023-04-30T09:31:25;2.60;;;2.20;;
12476;SDS011;6303;51.504;6.300;2023-04-30T09:33:52;2.35;;;2.15;;
12476;SDS011;6303;51.504;6.300;2023-04-30T09:36:19;2.40;;;2.05;;
12476;SDS011;6303;51.504;6.300;2023-04-30T09:38:46;2.08;;;1.88;;
12476;SDS011;6303;51.504;6.300;2023-04-30T09:41:20;2.17;;;1.98;;
12476;SDS011;6303;51.504;6.300;2023-04-30T09:43:49;2.10;;;1.92;;
12476;SDS011;6303;51.504;6.300;2023-04-30T09:46:17;2.80;;;1.90;;
12476;SDS011;6303;51.504;6.300;2023-04-30T09:48:46;1.80;;;1.70;;
12476;SDS011;6303;51.504;6.300;2023-04-30T09:51:13;3.55;;;2.28;;
12476;SDS011;6303;51.504;6.300;2023-04-30T09:53:41;2.80;;;2.10;;
12476;SDS011;6303;51.504;6.300;2023-04-30T09:56:09;2.33;;;2.03;;
12476;SDS011;6303;51.504;6.300;2023-04-30T09:58:38;2.17;;;2.08;;
12476;SDS011;6303;51.504;6.300;2023-04-30T10:01:11;2.20;;;2.00;;
12476;SDS011;6303;51.504;6.300;2023-04-30T10:03:38;2.13;;;1.90;;
12476;SDS011;6303;51.504;6.300;2023-04-30T10:06:06;2.20;;;2.00;;
12476;SDS011;6303;51.504;6.300;2023-04-30T10:08:35;2.00;;;1.90;;
12476;SDS011;6303;51.504;6.300;2023-04-30T10:11:06;2.05;;;1.92;;
12476;SDS011;6303;51.504;6.300;2023-04-30T10:13:37;2.17;;;1.98;;
12476;SDS011;6303;51.504;6.300;2023-04-30T10:16:11;1.90;;;1.80;;
12476;SDS011;6303;51.504;6.300;2023-04-30T10:18:44;1.98;;;1.88;;
12476;SDS011;6303;51.504;6.300;2023-04-30T10:21:15;2.17;;;2.00;;
12476;SDS011;6303;51.504;6.300;2023-04-30T10:23:45;2.33;;;2.13;;
12476;SDS011;6303;51.504;6.300;2023-04-30T10:26:14;1.90;;;1.80;;
12476;SDS011;6303;51.504;6.300;2023-04-30T10:28:42;1.92;;;1.83;;
12476;SDS011;6303;51.504;6.300;2023-04-30T10:31:10;2.40;;;2.00;;
12476;SDS011;6303;51.504;6.300;2023-04-30T10:33:41;2.03;;;1.92;;
12476;SDS011;6303;51.504;6.300;2023-04-30T10:36:17;1.77;;;1.58;;
12476;SDS011;6303;51.504;6.300;2023-04-30T10:38:49;1.88;;;1.75;;
12476;SDS011;6303;51.504;6.300;2023-04-30T10:41:16;2.08;;;1.92;;
12476;SDS011;6303;51.504;6.300;2023-04-30T10:43:45;2.10;;;1.90;;
12476;SDS011;6303;51.504;6.300;2023-04-30T10:46:21;2.10;;;1.80;;
12476;SDS011;6303;51.504;6.300;2023-04-30T10:48:49;2.17;;;2.03;;
12476;SDS011;6303;51.504;6.300;2023-04-30T10:51:19;2.55;;;1.90;;
12476;SDS011;6303;51.504;6.300;2023-04-30T10:53:47;1.80;;;1.70;;
12476;SDS011;6303;51.504;6.300;2023-04-30T10:56:28;2.05;;;1.88;;
12476;SDS011;6303;51.504;6.300;2023-04-30T10:58:58;1.77;;;1.67;;
12476;SDS011;6303;51.504;6.300;2023-04-30T11:01:28;1.80;;;1.70;;
12476;SDS011;6303;51.504;6.300;2023-04-30T11:04:05;2.00;;;1.85;;
12476;SDS011;6303;51.504;6.300;2023-04-30T11:06:50;1.98;;;1.88;;
12476;SDS011;6303;51.504;6.300;2023-04-30T11:09:23;1.80;;;1.70;;
12476;SDS011;6303;51.504;6.300;2023-04-30T11:12:01;1.73;;;1.63;;
12476;SDS011;6303;51.504;6.300;2023-04-30T11:14:30;2.05;;;1.70;;
12476;SDS011;6303;51.504;6.300;2023-04-30T11:16:59;1.95;;;1.85;;
12476;SDS011;6303;51.504;6.300;2023-04-30T11:19:27;1.75;;;1.65;;
12476;SDS011;6303;51.504;6.300;2023-04-30T11:24:51;1.80;;;1.70;;
12476;SDS011;6303;51.504;6.300;2023-04-30T11:27:19;1.70;;;1.60;;
12476;SDS011;6303;51.504;6.300;2023-04-30T11:29:48;1.73;;;1.63;;
12476;SDS011;6303;51.504;6.300;2023-04-30T11:32:18;2.10;;;1.90;;
12476;SDS011;6303;51.504;6.300;2023-04-30T11:34:46;1.70;;;1.60;;
12476;SDS011;6303;51.504;6.300;2023-04-30T11:37:17;1.88;;;1.77;;
12476;SDS011;6303;51.504;6.300;2023-04-30T11:39:45;1.80;;;1.70;;
12476;SDS011;6303;51.504;6.300;2023-04-30T11:42:14;1.90;;;1.80;;
12476;SDS011;6303;51.504;6.300;2023-04-30T11:44:42;1.80;;;1.70;;
12476;SDS011;6303;51.504;6.300;2023-04-30T11:47:10;1.80;;;1.70;;
12476;SDS011;6303;51.504;6.300;2023-04-30T11:49:39;1.92;;;1.80;;
12476;SDS011;6303;51.504;6.300;2023-04-30T11:52:06;1.40;;;1.40;;
12476;SDS011;6303;51.504;6.300;2023-04-30T11:57:02;1.70;;;1.60;;
12476;SDS011;6303;51.504;6.300;2023-04-30T11:59:29;1.70;;;1.60;;
12476;SDS011;6303;51.504;6.300;2023-04-30T12:01:56;1.80;;;1.70;;
12476;SDS011;6303;51.504;6.300;2023-04-30T12:04:23;1.67;;;1.58;;
12476;SDS011;6303;51.504;6.300;2023-04-30T12:06:53;1.70;;;1.60;;
12476;SDS011;6303;51.504;6.300;2023-04-30T12:09:20;1.60;;;1.50;;
12476;SDS011;6303;51.504;6.300;2023-04-30T12:11:48;1.60;;;1.50;;
12476;SDS011;6303;51.504;6.300;2023-04-30T12:14:14;1.70;;;1.60;;
12476;SDS011;6303;51.504;6.300;2023-04-30T12:16:42;1.70;;;1.60;;
12476;SDS011;6303;51.504;6.300;2023-04-30T12:19:13;1.70;;;1.60;;
12476;SDS011;6303;51.504;6.300;2023-04-30T12:21:41;1.73;;;1.63;;
12476;SDS011;6303;51.504;6.300;2023-04-30T12:24:12;1.60;;;1.50;;
12476;SDS011;6303;51.504;6.300;2023-04-30T12:26:39;1.52;;;1.42;;
12476;SDS011;6303;51.504;6.300;2023-04-30T12:29:07;1.60;;;1.50;;
12476;SDS011;6303;51.504;6.300;2023-04-30T12:31:35;1.80;;;1.70;;
12476;SDS011;6303;51.504;6.300;2023-04-30T12:34:04;1.52;;;1.42;;
12476;SDS011;6303;51.504;6.300;2023-04-30T12:36:31;1.63;;;1.52;;
12476;SDS011;6303;51.504;6.300;2023-04-30T12:39:01;1.60;;;1.50;;
12476;SDS011;6303;51.504;6.300;2023-04-30T12:41:36;1.63;;;1.52;;
12476;SDS011;6303;51.504;6.300;2023-04-30T12:44:18;1.65;;;1.55;;
12476;SDS011;6303;51.504;6.300;2023-04-30T12:46:46;1.75;;;1.65;;
12476;SDS011;6303;51.504;6.300;2023-04-30T12:49:23;1.70;;;1.60;;
12476;SDS011;6303;51.504;6.300;2023-04-30T12:51:51;1.60;;;1.50;;
12476;SDS011;6303;51.504;6.300;2023-04-30T12:54:23;1.70;;;1.60;;
12476;SDS011;6303;51.504;6.300;2023-04-30T12:57:00;1.42;;;1.33;;
12476;SDS011;6303;51.504;6.300;2023-04-30T12:59:28;1.55;;;1.45;;
12476;SDS011;6303;51.504;6.300;2023-04-30T13:02:03;1.65;;;1.55;;
12476;SDS011;6303;51.504;6.300;2023-04-30T13:04:34;1.55;;;1.40;;
12476;SDS011;6303;51.504;6.300;2023-04-30T13:07:01;1.80;;;1.70;;
12476;SDS011;6303;51.504;6.300;2023-04-30T13:09:28;1.65;;;1.55;;
12476;SDS011;6303;51.504;6.300;2023-04-30T13:11:56;1.50;;;1.40;;
12476;SDS011;6303;51.504;6.300;2023-04-30T13:14:24;1.50;;;1.40;;
12476;SDS011;6303;51.504;6.300;2023-04-30T13:16:51;1.40;;;1.30;;
12476;SDS011;6303;51.504;6.300;2023-04-30T13:19:18;1.85;;;1.75;;
12476;SDS011;6303;51.504;6.300;2023-04-30T13:21:46;1.52;;;1.42;;
12476;SDS011;6303;51.504;6.300;2023-04-30T13:24:13;1.48;;;1.38;;
12476;SDS011;6303;51.504;6.300;2023-04-30T13:26:40;1.83;;;1.73;;
12476;SDS011;6303;51.504;6.300;2023-04-30T13:29:07;1.58;;;1.48;;
12476;SDS011;6303;51.504;6.300;2023-04-30T13:31:35;1.60;;;1.50;;
12476;SDS011;6303;51.504;6.300;2023-04-30T13:34:02;1.50;;;1.40;;
12476;SDS011;6303;51.504;6.300;2023-04-30T13:36:30;1.58;;;1.45;;
12476;SDS011;6303;51.504;6.300;2023-04-30T13:38:57;1.55;;;1.45;;
12476;SDS011;6303;51.504;6.300;2023-04-30T13:41:24;1.55;;;1.45;;
12476;SDS011;6303;51.504;6.300;2023-04-30T13:43:51;1.50;;;1.40;;
12476;SDS011;6303;51.504;6.300;2023-04-30T13:46:18;1.95;;;1.58;;
12476;SDS011;6303;51.504;6.300;2023-04-30T13:48:46;1.30;;;1.30;;
12476;SDS011;6303;51.504;6.300;2023-04-30T13:51:15;1.60;;;1.50;;
12476;SDS011;6303;51.504;6.300;2023-04-30T13:53:42;1.65;;;1.55;;
12476;SDS011;6303;51.504;6.300;2023-04-30T13:56:10;1.85;;;1.40;;
12476;SDS011;6303;51.504;6.300;2023-04-30T13:58:37;1.45;;;1.35;;
12476;SDS011;6303;51.504;6.300;2023-04-30T14:01:04;1.48;;;1.38;;
12476;SDS011;6303;51.504;6.300;2023-04-30T14:03:31;1.52;;;1.40;;
12476;SDS011;6303;51.504;6.300;2023-04-30T14:05:59;1.60;;;1.50;;
12476;SDS011;6303;51.504;6.300;2023-04-30T14:08:26;1.52;;;1.40;;
12476;SDS011;6303;51.504;6.300;2023-04-30T14:10:55;1.50;;;1.40;;
12476;SDS011;6303;51.504;6.300;2023-04-30T14:13:22;1.63;;;1.52;;
12476;SDS011;6303;51.504;6.300;2023-04-30T14:15:50;2.47;;;1.40;;
12476;SDS011;6303;51.504;6.300;2023-04-30T14:18:17;1.83;;;1.40;;
12476;SDS011;6303;51.504;6.300;2023-04-30T14:20:46;1.88;;;1.50;;
12476;SDS011;6303;51.504;6.300;2023-04-30T14:23:15;1.50;;;1.40;;
12476;SDS011;6303;51.504;6.300;2023-04-30T14:25:42;1.50;;;1.40;;
12476;SDS011;6303;51.504;6.300;2023-04-30T14:28:09;2.08;;;1.40;;
12476;SDS011;6303;51.504;6.300;2023-04-30T14:30:36;2.30;;;1.42;;
12476;SDS011;6303;51.504;6.300;2023-04-30T14:33:03;1.35;;;1.30;;
12476;SDS011;6303;51.504;6.300;2023-04-30T14:35:30;2.50;;;1.40;;
12476;SDS011;6303;51.504;6.300;2023-04-30T14:37:58;1.98;;;1.40;;
12476;SDS011;6303;51.504;6.300;2023-04-30T14:40:26;2.08;;;1.30;;
12476;SDS011;6303;51.504;6.300;2023-04-30T14:42:53;2.20;;;1.55;;
12476;SDS011;6303;51.504;6.300;2023-04-30T14:45:21;3.30;;;1.95;;
12476;SDS011;6303;51.504;6.300;2023-04-30T14:47:48;17.23;;;4.75;;
12476;SDS011;6303;51.504;6.300;2023-04-30T14:50:15;23.38;;;6.78;;
12476;SDS011;6303;51.504;6.300;2023-04-30T14:52:42;16.95;;;4.75;;
12476;SDS011;6303;51.504;6.300;2023-04-30T14:55:09;14.75;;;4.13;;
12476;SDS011;6303;51.504;6.300;2023-04-30T14:57:37;14.80;;;4.47;;
12476;SDS011;6303;51.504;6.300;2023-04-30T15:00:05;14.80;;;4.53;;
12476;SDS011;6303;51.504;6.300;2023-04-30T15:02:34;9.98;;;4.30;;
12476;SDS011;6303;51.504;6.300;2023-04-30T15:05:02;15.68;;;4.22;;
12476;SDS011;6303;51.504;6.300;2023-04-30T15:07:30;8.88;;;3.83;;
12476;SDS011;6303;51.504;6.300;2023-04-30T15:09:57;10.98;;;4.00;;
12476;SDS011;6303;51.504;6.300;2023-04-30T15:12:24;10.27;;;4.10;;
12476;SDS011;6303;51.504;6.300;2023-04-30T15:14:52;8.68;;;4.03;;
12476;SDS011;6303;51.504;6.300;2023-04-30T15:17:19;9.98;;;3.80;;